createdAt,value
2023-03-05T00:00:18.262Z,101323.53
2023-03-05T00:02:44.655Z,101322.56
2023-03-05T00:05:11.157Z,101319.91
2023-03-05T00:07:37.519Z,101323.44
2023-03-05T00:10:04.809Z,101322.56
2023-03-05T00:12:31.468Z,101324.38
2023-03-05T00:14:57.900Z,101322.56
2023-03-05T00:17:24.314Z,101325.13
2023-03-05T00:19:50.722Z,101326.09
2023-03-05T00:22:17.166Z,101320.63
2023-03-05T00:24:43.618Z,101318.81
2023-03-05T00:27:10.050Z,101310.81
2023-03-05T00:29:36.470Z,101312.53
2023-03-05T00:32:03.007Z,101308.06
2023-03-05T00:34:29.665Z,101305.25
2023-03-05T00:36:56.199Z,101302.59
2023-03-05T00:39:22.746Z,101297.25
2023-03-05T00:41:49.198Z,101300.78
2023-03-05T00:44:15.895Z,101289.25
2023-03-05T00:46:42.388Z,101294.59
2023-03-05T00:49:08.873Z,101291.22
2023-03-05T00:51:35.628Z,101289.50
2023-03-05T00:54:02.348Z,101284.41
2023-03-05T00:56:28.995Z,101276.53
2023-03-05T00:58:55.446Z,101280.28
2023-03-05T01:01:21.966Z,101273.25
2023-03-05T01:03:48.585Z,101268.06
2023-03-05T01:06:16.929Z,101262.81
2023-03-05T01:08:44.115Z,101262.81
2023-03-05T01:11:11.727Z,101263.06
2023-03-05T01:13:38.310Z,101258.69
2023-03-05T01:16:06.151Z,101256.88
2023-03-05T01:18:33.426Z,101247.19
2023-03-05T01:20:59.838Z,101243.78
2023-03-05T01:23:26.604Z,101242.09
2023-03-05T01:25:55.431Z,101231.56
2023-03-05T01:28:22.614Z,101240.63
2023-03-05T01:30:49.379Z,101230.09
2023-03-05T01:33:16.131Z,101239.06
2023-03-05T01:35:42.594Z,101233.72
2023-03-05T01:38:09.145Z,101230.31
2023-03-05T01:40:35.528Z,101235.66
2023-03-05T01:43:29.855Z,101233.94
2023-03-05T01:46:17.765Z,101222.44
2023-03-05T01:48:52.280Z,101215.28
2023-03-05T01:51:22.830Z,101224.25
2023-03-05T01:53:49.514Z,101214.56
2023-03-05T01:56:16.825Z,101212.00
2023-03-05T01:58:44.882Z,101205.84
2023-03-05T02:01:11.370Z,101207.75
2023-03-05T02:03:38.528Z,101199.78
2023-03-05T02:06:05.217Z,101192.63
2023-03-05T02:08:31.655Z,101199.66
2023-03-05T02:10:58.072Z,101197.00
2023-03-05T02:13:28.432Z,101195.19
2023-03-05T02:15:57.810Z,101182.72
2023-03-05T02:18:24.872Z,101184.53
2023-03-05T02:20:51.137Z,101188.78
2023-03-05T02:23:19.283Z,101186.13
2023-03-05T02:25:45.688Z,101179.06
2023-03-05T02:28:17.988Z,101175.56
2023-03-05T02:30:44.400Z,101173.75
2023-03-05T02:33:10.949Z,101173.63
2023-03-05T02:35:37.381Z,101177.97
2023-03-05T02:38:03.723Z,101176.19
2023-03-05T02:40:30.058Z,101170.00
2023-03-05T02:42:56.438Z,101164.66
2023-03-05T02:45:22.965Z,101157.53
2023-03-05T02:47:49.441Z,101160.22
2023-03-05T02:50:15.995Z,101161.06
2023-03-05T02:52:42.367Z,101153.16
2023-03-05T02:55:09.073Z,101154.00
2023-03-05T02:57:35.448Z,101155.09
2023-03-05T03:00:01.984Z,101141.06
2023-03-05T03:02:28.454Z,101145.50
2023-03-05T03:04:54.776Z,101142.16
2023-03-05T03:07:21.137Z,101134.25
2023-03-05T03:09:47.461Z,101127.25
2023-03-05T03:12:13.957Z,101131.00
2023-03-05T03:14:42.461Z,101129.19
2023-03-05T03:17:11.985Z,101126.63
2023-03-05T03:19:38.835Z,101110.03
2023-03-05T03:22:06.378Z,101114.53
2023-03-05T03:24:34.658Z,101105.78
2023-03-05T03:27:01.932Z,101100.72
2023-03-05T03:29:28.761Z,101100.72
2023-03-05T03:31:55.191Z,101096.47
2023-03-05T03:34:22.047Z,101096.56
2023-03-05T03:36:50.541Z,101100.22
2023-03-05T03:39:17.324Z,101101.19
2023-03-05T03:41:47.818Z,101103.84
2023-03-05T03:44:17.392Z,101095.97
2023-03-05T03:46:46.082Z,101092.44
2023-03-05T03:49:19.120Z,101091.59
2023-03-05T03:51:46.433Z,101088.06
2023-03-05T03:54:14.091Z,101090.84
2023-03-05T03:56:40.549Z,101085.63
2023-03-05T03:59:06.961Z,101082.03
2023-03-05T04:01:33.525Z,101078.47
2023-03-05T04:04:00.122Z,101081.16
2023-03-05T04:06:26.701Z,101077.63
2023-03-05T04:08:53.150Z,101077.63
2023-03-05T04:11:19.666Z,101074.13
2023-03-05T04:13:47.250Z,101065.31
2023-03-05T04:16:15.188Z,101060.94
2023-03-05T04:18:42.537Z,101059.00
2023-03-05T04:21:09.806Z,101066.03
2023-03-05T04:23:36.382Z,101058.75
2023-03-05T04:26:03.267Z,101057.81
2023-03-05T04:28:29.822Z,101057.72
2023-03-05T04:30:56.320Z,101053.25
2023-03-05T04:33:22.879Z,101042.38
2023-03-05T04:35:49.868Z,101044.03
2023-03-05T04:38:16.372Z,101036.78
2023-03-05T04:40:42.805Z,101033.16
2023-03-05T04:43:09.132Z,101029.53
2023-03-05T04:45:35.556Z,101029.53
2023-03-05T04:48:02.296Z,101039.22
2023-03-05T04:50:28.855Z,101032.91
2023-03-05T04:52:55.260Z,101030.13
2023-03-05T04:55:21.603Z,101026.63
2023-03-05T04:57:47.969Z,101030.13
2023-03-05T05:00:17.530Z,101026.50
2023-03-05T05:02:45.601Z,101030.97
2023-03-05T05:05:14.191Z,101030.13
2023-03-05T05:07:40.919Z,101021.31
2023-03-05T05:10:08.420Z,101023.97
2023-03-05T05:12:35.359Z,101015.13
2023-03-05T05:15:03.551Z,101011.59
2023-03-05T05:17:32.862Z,101014.16
2023-03-05T05:20:00.204Z,101012.47
2023-03-05T05:22:28.486Z,101012.34
2023-03-05T05:24:55.716Z,101012.34
2023-03-05T05:27:22.605Z,101015.84
2023-03-05T05:29:52.880Z,101014.88
2023-03-05T05:32:21.180Z,101018.41
2023-03-05T05:34:48.831Z,101012.09
2023-03-05T05:37:15.310Z,101014.75
2023-03-05T05:39:41.709Z,101013.06
2023-03-05T05:42:08.126Z,101011.25
2023-03-05T05:44:35.083Z,101007.75
2023-03-05T05:47:01.769Z,101010.50
2023-03-05T05:49:28.309Z,101006.06
2023-03-05T05:51:54.812Z,101010.50
2023-03-05T05:54:21.185Z,101007.00
2023-03-05T05:56:47.552Z,101013.31
2023-03-05T05:59:13.976Z,101018.63
2023-03-05T06:01:40.705Z,101013.41
2023-03-05T06:04:07.169Z,101009.91
2023-03-05T06:06:34.885Z,101015.25
2023-03-05T06:09:02.385Z,101013.56
2023-03-05T06:11:29.251Z,101013.66
2023-03-05T06:13:55.589Z,101007.50
2023-03-05T06:16:24.079Z,101008.44
2023-03-05T06:18:51.578Z,101002.28
2023-03-05T06:21:19.568Z,101007.75
2023-03-05T06:23:47.874Z,101005.94
2023-03-05T06:26:17.348Z,101003.25
2023-03-05T06:28:43.901Z,101001.53
2023-03-05T06:31:13.670Z,101005.09
2023-03-05T06:33:40.926Z,101005.94
2023-03-05T06:36:10.333Z,101006.75
2023-03-05T06:38:37.041Z,101001.44
2023-03-05T06:41:06.004Z,101006.66
2023-03-05T06:43:33.456Z,101000.34
2023-03-05T06:46:08.529Z,101003.75
2023-03-05T06:48:34.928Z,100996.72
2023-03-05T06:51:01.346Z,100989.59
2023-03-05T06:53:28.263Z,100989.44
2023-03-05T06:55:55.107Z,100990.28
2023-03-05T06:58:21.690Z,100996.50
2023-03-05T07:00:48.110Z,100992.84
2023-03-05T07:03:14.982Z,100997.34
2023-03-05T07:05:42.761Z,100987.41
2023-03-05T07:08:09.595Z,100986.44
2023-03-05T07:10:40.185Z,100996.84
2023-03-05T07:13:07.273Z,100988.75
2023-03-05T07:15:34.417Z,100993.94
2023-03-05T07:18:00.757Z,100985.00
2023-03-05T07:20:27.166Z,100986.56
2023-03-05T07:22:53.538Z,100981.22
2023-03-05T07:25:21.555Z,100981.09
2023-03-05T07:27:48.532Z,100980.16
2023-03-05T07:30:15.494Z,100975.41
2023-03-05T07:32:42.400Z,100979.75
2023-03-05T07:35:09.231Z,100975.16
2023-03-05T07:37:35.712Z,100973.22
2023-03-05T07:40:02.650Z,100976.63
2023-03-05T07:42:29.023Z,100974.66
2023-03-05T07:44:56.136Z,100977.19
2023-03-05T07:47:23.405Z,100976.94
2023-03-05T07:49:50.124Z,100972.25
2023-03-05T07:52:16.511Z,100972.84
2023-03-05T07:54:42.920Z,100968.97
2023-03-05T07:57:11.062Z,100961.41
2023-03-05T07:59:38.246Z,100969.88
2023-03-05T08:02:05.356Z,100970.34
2023-03-05T08:04:31.944Z,100970.09
2023-03-05T08:06:59.588Z,100959.91
2023-03-05T08:09:26.337Z,100965.00
2023-03-05T08:11:52.686Z,100966.44
2023-03-05T08:14:19.017Z,100963.75
2023-03-05T08:16:48.365Z,100957.47
2023-03-05T08:19:14.910Z,100959.16
2023-03-05T08:21:41.232Z,100949.34
2023-03-05T08:24:09.239Z,100947.41
2023-03-05T08:26:40.967Z,100950.53
2023-03-05T08:29:09.443Z,100952.09
2023-03-05T08:31:36.656Z,100945.50
2023-03-05T08:34:04.068Z,100939.94
2023-03-05T08:36:30.551Z,100943.91
2023-03-05T08:38:56.961Z,100935.78
2023-03-05T08:41:23.327Z,100934.66
2023-03-05T08:43:58.712Z,100922.88
2023-03-05T08:46:25.171Z,100921.78
2023-03-05T08:48:51.611Z,100924.19
2023-03-05T08:51:21.247Z,100927.31
2023-03-05T08:53:47.676Z,100926.22
2023-03-05T08:56:14.691Z,100929.34
2023-03-05T08:58:43.480Z,100933.44
2023-03-05T09:01:10.807Z,100927.84
2023-03-05T09:03:37.525Z,100923.22
2023-03-05T09:06:07.639Z,100921.25
2023-03-05T09:08:35.515Z,100918.72
2023-03-05T09:11:04.301Z,100916.06
2023-03-05T09:13:30.856Z,100908.88
2023-03-05T09:15:59.622Z,100915.91
2023-03-05T09:18:26.969Z,100913.25
2023-03-05T09:20:54.291Z,100905.13
2023-03-05T09:23:20.679Z,100899.66
2023-03-05T09:25:47.117Z,100902.16
2023-03-05T09:28:13.437Z,100907.41
2023-03-05T09:30:39.879Z,100904.56
2023-03-05T09:33:06.303Z,100899.00
2023-03-05T09:35:36.093Z,100893.38
2023-03-05T09:38:03.394Z,100898.31
2023-03-05T09:40:52.206Z,100906.06
2023-03-05T09:43:37.195Z,100895.97
2023-03-05T09:46:17.148Z,100901.63
2023-03-05T09:48:58.252Z,100894.03
2023-03-05T09:51:28.077Z,100883.78
2023-03-05T09:54:02.935Z,100892.13
2023-03-05T09:56:34.699Z,100887.22
2023-03-05T09:59:17.477Z,100885.81
2023-03-05T10:01:45.264Z,100886.25
2023-03-05T10:04:23.806Z,100883.03
2023-03-05T10:07:00.000Z,100878.97
2023-03-05T10:09:44.620Z,100884.06
2023-03-05T10:12:27.623Z,100878.72
2023-03-05T10:14:54.809Z,100875.88
2023-03-05T10:17:39.584Z,100884.63
2023-03-05T10:20:23.127Z,100870.00
2023-03-05T10:23:05.302Z,100858.88
2023-03-05T10:25:50.042Z,100870.88
2023-03-05T10:28:21.416Z,100861.31
2023-03-05T10:31:09.069Z,100859.91
2023-03-05T10:34:01.742Z,100848.38
2023-03-05T10:37:12.449Z,100848.09
2023-03-05T10:39:59.962Z,100842.88
2023-03-05T10:43:24.077Z,100835.28
2023-03-05T10:45:55.227Z,100830.47
2023-03-05T10:48:42.951Z,100828.78
2023-03-05T10:51:22.921Z,100829.47
2023-03-05T10:53:59.420Z,100825.81
2023-03-05T10:56:28.251Z,100816.94
2023-03-05T10:58:55.004Z,100826.66
2023-03-05T11:01:29.612Z,100814.00
2023-03-05T11:04:05.130Z,100813.69
2023-03-05T11:06:45.661Z,100811.72
2023-03-05T11:09:29.072Z,100808.88
2023-03-05T11:12:10.532Z,100800.56
2023-03-05T11:14:42.631Z,100799.44
2023-03-05T11:17:24.059Z,100805.34
2023-03-05T11:19:50.454Z,100802.38
2023-03-05T11:22:22.369Z,100799.94
2023-03-05T11:25:03.263Z,100786.00
2023-03-05T11:27:52.521Z,100783.44
2023-03-05T11:30:25.655Z,100780.84
2023-03-05T11:33:13.372Z,100774.63
2023-03-05T11:35:43.202Z,100778.53
2023-03-05T11:38:23.654Z,100763.38
2023-03-05T11:40:52.153Z,100756.16
2023-03-05T11:43:21.097Z,100754.94
2023-03-05T11:45:51.156Z,100749.88
2023-03-05T11:48:46.462Z,100752.03
2023-03-05T11:51:22.404Z,100745.31
2023-03-05T11:53:51.425Z,100739.00
2023-03-05T11:56:25.457Z,100739.94
2023-03-05T11:59:04.523Z,100738.78
2023-03-05T12:01:34.419Z,100747.66
2023-03-05T12:04:00.948Z,100722.69
2023-03-05T12:06:38.807Z,100724.34
2023-03-05T12:09:33.908Z,100719.69
2023-03-05T12:12:18.256Z,100720.06
2023-03-05T12:14:58.280Z,100705.31
2023-03-05T12:17:45.162Z,100709.19
2023-03-05T12:20:23.294Z,100700.69
2023-03-05T12:22:50.653Z,100691.47
2023-03-05T12:25:17.013Z,100701.75
2023-03-05T12:27:43.659Z,100689.00
2023-03-05T12:30:49.127Z,100696.19
2023-03-05T12:33:37.360Z,100695.34
2023-03-05T12:36:34.101Z,100684.25
2023-03-05T12:39:00.426Z,100685.28
2023-03-05T12:41:31.020Z,100684.91
2023-03-05T12:44:07.590Z,100687.53
2023-03-05T12:46:35.976Z,100671.91
2023-03-05T12:49:21.072Z,100669.88
2023-03-05T12:51:52.338Z,100661.47
2023-03-05T12:54:27.907Z,100657.25
2023-03-05T12:56:57.596Z,100657.25
2023-03-05T12:59:29.901Z,100656.25
2023-03-05T13:02:00.676Z,100650.56
2023-03-05T13:04:30.338Z,100644.03
2023-03-05T13:07:04.123Z,100641.91
2023-03-05T13:09:34.794Z,100634.69
2023-03-05T13:12:03.907Z,100630.84
2023-03-05T13:14:43.552Z,100630.19
2023-03-05T13:17:30.681Z,100627.03
2023-03-05T13:19:59.053Z,100621.53
2023-03-05T13:22:25.718Z,100618.84
2023-03-05T13:25:15.374Z,100617.97
2023-03-05T13:27:42.220Z,100620.97
2023-03-05T13:30:26.501Z,100612.09
2023-03-05T13:32:57.646Z,100602.19
2023-03-05T13:35:24.321Z,100589.81
2023-03-05T13:37:51.040Z,100598.69
2023-03-05T13:40:30.124Z,100587.97
2023-03-05T13:43:09.659Z,100596.00
2023-03-05T13:45:36.026Z,100584.44
2023-03-05T13:48:05.644Z,100589.94
2023-03-05T13:50:38.869Z,100585.59
2023-03-05T13:53:23.369Z,100584.22
2023-03-05T13:55:51.938Z,100584.56
2023-03-05T13:58:49.124Z,100576.81
2023-03-05T14:01:26.704Z,100574.47
2023-03-05T14:03:55.966Z,100575.97
2023-03-05T14:06:23.932Z,100567.38
2023-03-05T14:09:00.453Z,100568.53
2023-03-05T14:11:26.824Z,100559.28
2023-03-05T14:14:08.020Z,100555.41
2023-03-05T14:16:34.485Z,100552.19
2023-03-05T14:19:03.132Z,100551.63
2023-03-05T14:21:48.015Z,100543.91
2023-03-05T14:24:22.066Z,100547.75
2023-03-05T14:26:53.723Z,100542.72
2023-03-05T14:29:23.599Z,100537.53
2023-03-05T14:31:54.489Z,100531.31
2023-03-05T14:34:23.096Z,100536.66
2023-03-05T14:36:51.630Z,100525.44
2023-03-05T14:39:28.432Z,100522.91
2023-03-05T14:41:54.921Z,100519.84
2023-03-05T14:44:25.241Z,100522.72
2023-03-05T14:46:51.784Z,100513.16
2023-03-05T14:49:20.206Z,100511.44
2023-03-05T14:51:47.191Z,100504.41
2023-03-05T14:54:22.837Z,100506.09
2023-03-05T14:56:50.213Z,100495.38
2023-03-05T14:59:23.218Z,100492.69
2023-03-05T15:01:50.945Z,100482.66
2023-03-05T15:04:19.721Z,100474.63
2023-03-05T15:06:50.588Z,100470.09
2023-03-05T15:09:19.521Z,100471.63
2023-03-05T15:11:46.963Z,100476.00
2023-03-05T15:14:13.574Z,100465.09
2023-03-05T15:16:43.959Z,100462.28
2023-03-05T15:19:12.002Z,100463.09
2023-03-05T15:21:38.895Z,100461.44
2023-03-05T15:24:05.570Z,100458.91
2023-03-05T15:26:32.630Z,100460.91
2023-03-05T15:28:59.044Z,100450.34
2023-03-05T15:31:25.705Z,100455.03
2023-03-05T15:34:01.473Z,100456.19
2023-03-05T15:36:27.796Z,100446.81
2023-03-05T15:38:54.160Z,100452.31
2023-03-05T15:41:22.291Z,100450.78
2023-03-05T15:43:48.622Z,100444.59
2023-03-05T15:46:14.957Z,100446.44
2023-03-05T15:48:44.136Z,100439.69
2023-03-05T15:51:10.538Z,100436.19
2023-03-05T15:53:36.852Z,100438.03
2023-03-05T15:56:03.270Z,100438.31
2023-03-05T15:58:29.682Z,100442.84
2023-03-05T16:00:56.626Z,100431.63
2023-03-05T16:03:26.071Z,100427.28
2023-03-05T16:05:52.717Z,100428.44
2023-03-05T16:08:19.068Z,100423.22
2023-03-05T16:10:46.560Z,100424.50
2023-03-05T16:13:18.570Z,100428.22
2023-03-05T16:15:48.925Z,100430.38
2023-03-05T16:18:16.333Z,100422.66
2023-03-05T16:20:42.763Z,100420.28
2023-03-05T16:23:09.332Z,100410.06
2023-03-05T16:25:36.995Z,100408.53
2023-03-05T16:28:03.374Z,100408.81
2023-03-05T16:30:29.877Z,100407.47
2023-03-05T16:32:56.342Z,100407.78
2023-03-05T16:35:22.880Z,100406.41
2023-03-05T16:37:49.366Z,100406.72
2023-03-05T16:40:16.508Z,100407.72
2023-03-05T16:42:43.181Z,100402.84
2023-03-05T16:45:11.489Z,100395.97
2023-03-05T16:47:38.662Z,100397.25
2023-03-05T16:50:05.912Z,100400.09
2023-03-05T16:52:32.474Z,100394.06
2023-03-05T16:54:58.898Z,100395.22
2023-03-05T16:57:25.673Z,100388.34
2023-03-05T16:59:53.062Z,100383.13
2023-03-05T17:02:19.784Z,100386.13
2023-03-05T17:04:46.239Z,100381.91
2023-03-05T17:07:12.821Z,100389.28
2023-03-05T17:09:39.209Z,100391.25
2023-03-05T17:12:05.928Z,100390.56
2023-03-05T17:14:32.343Z,100388.22
2023-03-05T17:16:58.846Z,100391.84
2023-03-05T17:19:25.178Z,100384.84
2023-03-05T17:21:52.222Z,100390.34
2023-03-05T17:24:21.556Z,100388.84
2023-03-05T17:26:49.795Z,100385.47
2023-03-05T17:29:16.197Z,100389.28
2023-03-05T17:31:42.598Z,100385.09
2023-03-05T17:34:09.118Z,100381.03
2023-03-05T17:36:35.661Z,100379.66
2023-03-05T17:39:02.048Z,100383.63
2023-03-05T17:41:28.546Z,100376.91
2023-03-05T17:43:54.889Z,100374.53
2023-03-05T17:46:21.301Z,100372.16
2023-03-05T17:48:48.198Z,100369.66
2023-03-05T17:51:16.605Z,100371.78
2023-03-05T17:53:44.093Z,100368.44
2023-03-05T17:56:12.249Z,100373.94
2023-03-05T17:58:39.762Z,100371.38
2023-03-05T18:01:07.250Z,100368.06
2023-03-05T18:03:34.174Z,100369.03
2023-03-05T18:06:00.503Z,100365.66
2023-03-05T18:08:26.926Z,100367.50
2023-03-05T18:10:54.428Z,100367.63
2023-03-05T18:13:20.974Z,100361.41
2023-03-05T18:15:47.521Z,100355.41
2023-03-05T18:18:18.457Z,100362.56
2023-03-05T18:20:45.543Z,100354.84
2023-03-05T18:23:11.924Z,100356.88
2023-03-05T18:25:38.498Z,100358.00
2023-03-05T18:28:14.142Z,100350.25
2023-03-05T18:30:42.157Z,100349.59
2023-03-05T18:33:13.596Z,100349.88
2023-03-05T18:35:39.967Z,100349.22
2023-03-05T18:38:07.901Z,100344.00
2023-03-05T18:40:35.948Z,100347.81
2023-03-05T18:43:03.476Z,100342.63
2023-03-05T18:45:30.880Z,100339.97
2023-03-05T18:47:57.740Z,100336.59
2023-03-05T18:50:27.382Z,100342.91
2023-03-05T18:52:54.080Z,100334.91
2023-03-05T18:55:24.132Z,100331.38
2023-03-05T18:57:50.753Z,100331.56
2023-03-05T19:00:20.410Z,100333.53
2023-03-05T19:02:46.846Z,100325.53
2023-03-05T19:05:14.358Z,100333.66
2023-03-05T19:07:41.108Z,100324.13
2023-03-05T19:10:09.897Z,100324.13
2023-03-05T19:13:27.056Z,100322.47
2023-03-05T19:15:53.675Z,100322.47
2023-03-05T19:18:54.158Z,100322.59
2023-03-05T19:21:20.506Z,100321.91
2023-03-05T19:23:46.829Z,100321.06
2023-03-05T19:26:13.660Z,100313.22
2023-03-05T19:28:40.050Z,100308.00
2023-03-05T19:31:06.460Z,100311.50
2023-03-05T19:33:32.880Z,100301.84
2023-03-05T19:35:59.276Z,100299.16
2023-03-05T19:38:25.644Z,100291.28
2023-03-05T19:40:52.129Z,100291.28
2023-03-05T19:43:18.540Z,100295.78
2023-03-05T19:45:44.965Z,100285.13
2023-03-05T19:48:11.532Z,100288.94
2023-03-05T19:50:37.893Z,100290.75
2023-03-05T19:53:04.274Z,100285.41
2023-03-05T19:55:30.604Z,100295.28
2023-03-05T19:57:56.941Z,100294.44
2023-03-05T20:00:26.416Z,100286.56
2023-03-05T20:02:52.737Z,100284.91
2023-03-05T20:05:22.592Z,100278.69
2023-03-05T20:07:49.241Z,100282.34
2023-03-05T20:10:15.731Z,100281.53
2023-03-05T20:12:43.959Z,100279.00
2023-03-05T20:15:10.447Z,100277.31
2023-03-05T20:17:36.835Z,100275.66
2023-03-05T20:20:03.491Z,100266.78
2023-03-05T20:22:29.830Z,100267.78
2023-03-05T20:24:56.226Z,100267.09
2023-03-05T20:27:23.904Z,100267.09
2023-03-05T20:29:50.252Z,100262.75
2023-03-05T20:32:16.608Z,100254.03
2023-03-05T20:34:43.347Z,100255.88
2023-03-05T20:37:09.706Z,100251.50
2023-03-05T20:39:36.029Z,100256.00
2023-03-05T20:42:02.616Z,100252.66
2023-03-05T20:44:29.021Z,100250.13
2023-03-05T20:47:25.848Z,100246.63
2023-03-05T20:49:55.860Z,100244.94
2023-03-05T20:52:22.354Z,100240.59
2023-03-05T20:54:48.719Z,100239.78
2023-03-05T20:57:15.234Z,100242.56
2023-03-05T20:59:41.664Z,100238.22
2023-03-05T21:02:11.273Z,100233.88
2023-03-05T21:04:37.627Z,100228.84
2023-03-05T21:07:04.189Z,100222.66
2023-03-05T21:09:31.268Z,100207.78
2023-03-05T21:11:57.652Z,100214.13
2023-03-05T21:14:24.027Z,100208.94
2023-03-05T21:16:50.449Z,100212.59
2023-03-05T21:19:17.058Z,100201.34
2023-03-05T21:21:45.614Z,100196.03
2023-03-05T21:24:53.427Z,100196.31
2023-03-05T21:27:19.898Z,100196.31
2023-03-05T21:29:46.326Z,100183.97
2023-03-05T21:32:12.709Z,100193.13
2023-03-05T21:34:39.078Z,100185.25
2023-03-05T21:37:05.417Z,100181.06
2023-03-05T21:39:31.749Z,100177.56
2023-03-05T21:41:58.210Z,100175.03
2023-03-05T21:44:24.558Z,100177.84
2023-03-05T21:46:51.332Z,100179.84
2023-03-05T21:49:17.725Z,100175.50
2023-03-05T21:52:09.332Z,100171.13
2023-03-05T21:54:37.637Z,100166.94
2023-03-05T21:57:05.690Z,100158.25
2023-03-05T21:59:32.056Z,100159.22
2023-03-05T22:01:58.479Z,100154.06
2023-03-05T22:04:25.275Z,100156.03
2023-03-05T22:06:51.789Z,100151.66
2023-03-05T22:09:18.580Z,100151.84
2023-03-05T22:11:45.001Z,100150.13
2023-03-05T22:14:11.742Z,100137.94
2023-03-05T22:16:38.361Z,100138.94
2023-03-05T22:19:05.333Z,100131.06
2023-03-05T22:21:32.117Z,100132.91
2023-03-05T22:23:58.908Z,100123.22
2023-03-05T22:26:27.092Z,100123.22
2023-03-05T22:28:53.481Z,100119.75
2023-03-05T22:31:25.253Z,100116.19
2023-03-05T22:33:52.508Z,100109.38
2023-03-05T22:36:18.989Z,100103.19
2023-03-05T22:38:46.119Z,100103.34
2023-03-05T22:41:16.646Z,100102.34
2023-03-05T22:43:42.985Z,100100.81
2023-03-05T22:46:11.662Z,100098.16
2023-03-05T22:48:38.149Z,100094.78
2023-03-05T22:51:04.634Z,100095.78
2023-03-05T22:53:31.452Z,100096.78
2023-03-05T22:55:57.811Z,100078.25
2023-03-05T22:58:24.194Z,100086.38
2023-03-05T23:00:50.537Z,100081.22
2023-03-05T23:03:16.921Z,100080.66
2023-03-05T23:05:43.328Z,100076.50
2023-03-05T23:08:09.900Z,100073.13
2023-03-05T23:10:36.517Z,100074.28
2023-03-05T23:13:02.946Z,100075.41
2023-03-05T23:15:35.369Z,100073.88
2023-03-05T23:18:02.367Z,100072.47
2023-03-05T23:20:31.764Z,100076.13
2023-03-05T23:22:58.427Z,100067.63
2023-03-05T23:25:29.113Z,100071.25
2023-03-05T23:27:58.077Z,100073.38
2023-03-05T23:30:30.098Z,100066.50
2023-03-05T23:33:20.377Z,100062.31
2023-03-05T23:35:55.068Z,100058.13
2023-03-05T23:38:21.764Z,100063.59
2023-03-05T23:40:50.977Z,100057.59
2023-03-05T23:43:18.457Z,100057.84
2023-03-05T23:45:48.030Z,100053.66
2023-03-05T23:48:16.209Z,100049.31
2023-03-05T23:50:45.292Z,100046.97
2023-03-05T23:53:19.539Z,100052.41
2023-03-05T23:55:46.425Z,100047.41
2023-03-05T23:58:13.497Z,100045.03
